Time;durP1;ratioP1;P1;durP2;ratioP2;P2;SDS_P1;SDS_P2;PMS_P1;PMS_P2;Temp;Humidity;BMP_temperature;BMP_pressure;BME280_temperature;BME280_humidity;BME280_pressure;Samples;Min_cycle;Max_cycle;Signal;HPM_P1;HPM_P2
2023/09/04 00:00:29;;;;;;;9.95;7.35;;;;;;;17.26;100.00;-18491.88;5026645;28;20180;-76
2023/09/04 00:02:54;;;;;;;11.23;7.95;;;;;;;17.10;100.00;-18487.50;5027376;28;20041;-75
2023/09/04 00:05:20;;;;;;;10.93;8.60;;;;;;;17.04;100.00;-18485.88;5026935;28;20053;-75
2023/09/04 00:07:45;;;;;;;11.20;8.15;;;;;;;17.08;100.00;-18486.97;5010683;28;20049;-75
2023/09/04 00:10:12;;;;;;;10.95;8.25;;;;;;;16.94;100.00;-18483.13;5024908;28;20037;-76
2023/09/04 00:12:38;;;;;;;12.25;8.65;;;;;;;16.97;100.00;-18484.09;5027216;28;20041;-76
2023/09/04 00:15:04;;;;;;;11.40;7.97;;;;;;;16.97;100.00;-18484.09;5008532;28;20553;-76
2023/09/04 00:17:33;;;;;;;12.48;8.65;;;;;;;17.08;100.00;-18486.97;5026783;28;20045;-76
2023/09/04 00:19:58;;;;;;;12.05;7.80;;;;;;;17.01;100.00;-18485.19;5023530;28;20106;-75
2023/09/04 00:22:24;;;;;;;10.07;7.55;;;;;;;17.03;100.00;-18485.59;5004730;28;20049;-75
2023/09/04 00:24:49;;;;;;;12.18;8.88;;;;;;;17.06;100.00;-18486.41;5022772;28;20056;-75
2023/09/04 00:27:15;;;;;;;11.48;8.85;;;;;;;16.76;100.00;-18478.50;5025829;28;20060;-76
2023/09/04 00:29:40;;;;;;;11.60;8.55;;;;;;;16.79;100.00;-18479.16;5025212;28;20065;-77
2023/09/04 00:32:09;;;;;;;15.43;8.85;;;;;;;16.76;100.00;-18478.34;5025116;28;20033;-75
2023/09/04 00:34:34;;;;;;;11.57;8.70;;;;;;;16.65;100.00;-18475.47;5007514;28;20120;-75
2023/09/04 00:36:59;;;;;;;11.77;8.43;;;;;;;16.65;100.00;-18475.63;5023094;28;20466;-75
2023/09/04 00:39:25;;;;;;;10.20;7.85;;;;;;;16.69;100.00;-18476.72;5027067;28;20045;-75
2023/09/04 00:41:50;;;;;;;13.77;9.40;;;;;;;16.74;100.00;-18477.94;5004774;28;20049;-75
2023/09/04 00:44:17;;;;;;;12.55;9.20;;;;;;;16.67;100.00;-18476.03;5008414;28;20550;-76
2023/09/04 00:46:43;;;;;;;12.35;10.07;;;;;;;16.58;100.00;-18473.56;5017935;28;20067;-75
2023/09/04 00:49:11;;;;;;;12.13;9.50;;;;;;;16.57;100.00;-18473.28;5025897;28;20037;-75
2023/09/04 00:51:36;;;;;;;11.40;8.43;;;;;;;16.46;100.00;-18470.56;5007634;28;20073;-75
2023/09/04 00:54:03;;;;;;;14.82;8.48;;;;;;;16.42;100.00;-18469.34;5024879;28;20049;-76
2023/09/04 00:56:29;;;;;;;12.77;8.60;;;;;;;16.43;100.00;-18469.59;5008285;28;20092;-75
2023/09/04 00:58:55;;;;;;;13.35;9.18;;;;;;;16.43;100.00;-18469.59;5024603;28;20038;-77
2023/09/04 01:01:21;;;;;;;12.70;9.30;;;;;;;16.50;100.00;-18471.38;5025622;28;20088;-77
2023/09/04 01:03:46;;;;;;;11.32;8.32;;;;;;;16.42;100.00;-18469.34;5020622;28;20588;-77
2023/09/04 01:06:12;;;;;;;11.63;9.00;;;;;;;16.36;100.00;-18467.81;5002666;28;20041;-77
2023/09/04 01:08:37;;;;;;;14.93;9.82;;;;;;;16.26;100.00;-18465.09;5024337;28;20056;-77
2023/09/04 01:11:15;;;;;;;13.00;9.60;;;;;;;16.28;100.00;-18465.63;5025258;28;20041;-77
2023/09/04 01:13:56;;;;;;;14.60;9.63;;;;;;;16.28;100.00;-18465.63;5002483;28;20049;-77
2023/09/04 01:16:23;;;;;;;13.40;9.80;;;;;;;16.35;100.00;-18467.56;5020654;28;20385;-77
2023/09/04 01:18:49;;;;;;;14.07;10.10;;;;;;;16.31;100.00;-18466.47;5007446;28;20129;-77
2023/09/04 01:21:16;;;;;;;13.55;9.52;;;;;;;16.34;100.00;-18467.16;5024859;28;20041;-75
2023/09/04 01:23:41;;;;;;;12.07;9.18;;;;;;;16.35;100.00;-18467.56;5021750;28;20054;-77
2023/09/04 01:26:20;;;;;;;13.00;9.55;;;;;;;16.35;100.00;-18467.41;5003123;28;20393;-77
2023/09/04 01:28:45;;;;;;;;;;;;;;;16.36;100.00;-18467.81;5025971;28;20601;-77
2023/09/04 01:31:11;;;;;;;15.63;10.53;;;;;;;16.32;100.00;-18466.75;5004428;28;19940;-77
2023/09/04 01:33:42;;;;;;;15.02;10.57;;;;;;;16.39;100.00;-18468.50;5015968;28;20287;-77
2023/09/04 01:36:12;;;;;;;14.63;10.77;;;;;;;16.39;100.00;-18468.50;5019475;28;20656;-77
2023/09/04 01:38:38;;;;;;;14.52;11.00;;;;;;;16.42;100.00;-18469.47;5017785;28;20050;-77
2023/09/04 01:41:05;;;;;;;15.50;11.43;;;;;;;16.51;100.00;-18471.66;5007278;28;20072;-77
2023/09/04 01:43:31;;;;;;;17.58;11.23;;;;;;;16.46;100.00;-18470.56;5009436;28;20064;-78
2023/09/04 01:45:56;;;;;;;14.75;10.52;;;;;;;16.51;100.00;-18471.78;5024577;28;20041;-77
2023/09/04 01:48:22;;;;;;;15.15;11.07;;;;;;;16.47;100.00;-18470.84;5024992;28;20041;-77
2023/09/04 01:50:47;;;;;;;16.70;11.40;;;;;;;16.22;100.00;-18464.00;5024402;28;20057;-77
2023/09/04 01:53:12;;;;;;;15.57;10.88;;;;;;;16.22;100.00;-18464.13;5020661;28;20072;-77
2023/09/04 01:55:38;;;;;;;15.13;10.48;;;;;;;16.21;100.00;-18463.72;5007240;28;20617;-78
2023/09/04 01:58:03;;;;;;;15.32;10.85;;;;;;;16.26;100.00;-18465.09;5000802;28;20088;-78
2023/09/04 02:00:28;;;;;;;15.70;10.95;;;;;;;16.02;100.00;-18458.81;5021216;28;20044;-78
2023/09/04 02:02:54;;;;;;;16.83;10.52;;;;;;;16.20;100.00;-18463.59;5019849;28;20073;-78
2023/09/04 02:05:19;;;;;;;15.48;11.07;;;;;;;16.12;100.00;-18461.28;5026301;28;20041;-79
2023/09/04 02:07:44;;;;;;;14.55;10.48;;;;;;;16.28;100.00;-18465.50;5022806;28;20125;-78
2023/09/04 02:10:10;;;;;;;16.20;11.52;;;;;;;16.13;100.00;-18461.53;5009571;28;20167;-76
2023/09/04 02:12:35;;;;;;;14.93;10.75;;;;;;;16.11;100.00;-18461.00;5004527;28;20068;-75
2023/09/04 02:15:00;;;;;;;17.33;11.20;;;;;;;16.08;100.00;-18460.19;5024228;28;20065;-76
2023/09/04 02:17:26;;;;;;;15.10;10.23;;;;;;;16.16;100.00;-18462.50;5024555;28;20187;-76
2023/09/04 02:19:51;;;;;;;16.70;11.98;;;;;;;16.20;100.00;-18463.59;5024800;28;20073;-76
2023/09/04 02:22:17;;;;;;;18.27;11.45;;;;;;;16.10;100.00;-18460.72;5025285;28;20037;-76
2023/09/04 02:24:44;;;;;;;19.90;11.60;;;;;;;15.99;100.00;-18458.00;5004800;28;20115;-75
2023/09/04 02:27:10;;;;;;;15.55;10.73;;;;;;;16.06;100.00;-18459.63;5025199;28;20505;-76
2023/09/04 02:29:35;;;;;;;15.27;11.02;;;;;;;15.96;100.00;-18457.16;5024282;28;20436;-76
2023/09/04 02:32:00;;;;;;;15.15;10.98;;;;;;;16.02;100.00;-18458.81;5025500;28;20065;-77
2023/09/04 02:34:26;;;;;;;15.23;11.30;;;;;;;15.92;100.00;-18456.06;5021373;28;20041;-76
2023/09/04 02:36:51;;;;;;;16.58;10.55;;;;;;;15.82;100.00;-18453.34;5006668;28;20060;-76
2023/09/04 02:39:16;;;;;;;13.60;10.30;;;;;;;15.71;100.00;-18450.47;5002972;28;20037;-76
2023/09/04 02:41:42;;;;;;;14.85;10.48;;;;;;;15.78;100.00;-18452.25;5001785;28;20433;-75
2023/09/04 02:44:07;;;;;;;17.85;11.93;;;;;;;15.81;100.00;-18453.06;5017541;28;20064;-76
2023/09/04 02:46:32;;;;;;;15.10;10.70;;;;;;;15.69;100.00;-18449.78;5005159;28;20103;-76
2023/09/04 02:48:58;;;;;;;15.73;11.40;;;;;;;15.76;100.00;-18451.69;5024270;28;20059;-76
2023/09/04 02:51:24;;;;;;;17.13;10.95;;;;;;;15.72;100.00;-18450.59;5017102;28;20077;-76
2023/09/04 02:53:49;;;;;;;17.15;12.18;;;;;;;15.70;100.00;-18450.06;5024612;28;20056;-76
2023/09/04 02:56:15;;;;;;;15.18;10.82;;;;;;;15.72;100.00;-18450.59;5016885;28;20455;-76
2023/09/04 02:58:41;;;;;;;15.65;11.10;;;;;;;15.73;100.00;-18450.88;5018001;28;20061;-76
2023/09/04 03:01:06;;;;;;;16.48;11.23;;;;;;;15.72;100.00;-18450.59;5025694;28;20453;-76
2023/09/04 03:03:32;;;;;;;17.13;10.98;;;;;;;15.76;100.00;-18451.84;5023234;28;20045;-75
2023/09/04 03:06:06;;;;;;;14.55;11.18;;;;;;;15.72;100.00;-18450.75;5016771;28;20049;-76
2023/09/04 03:08:31;;;;;;;16.58;11.77;;;;;;;15.57;100.00;-18446.78;5021394;28;20045;-74
2023/09/04 03:10:56;;;;;;;15.68;10.55;;;;;;;15.56;100.00;-18446.50;5022804;28;20102;-77
2023/09/04 03:13:22;;;;;;;15.18;11.05;;;;;;;15.68;100.00;-18449.66;5024714;28;20447;-75
2023/09/04 03:15:47;;;;;;;15.40;11.60;;;;;;;15.73;100.00;-18450.88;5022954;28;20046;-76
2023/09/04 03:18:12;;;;;;;17.67;12.35;;;;;;;15.84;100.00;-18453.88;5023682;28;20044;-77
2023/09/04 03:20:38;;;;;;;14.93;10.80;;;;;;;15.61;100.00;-18447.59;5022905;28;20141;-75
2023/09/04 03:23:03;;;;;;;15.80;11.50;;;;;;;15.54;100.00;-18445.94;5021400;28;20034;-76
2023/09/04 03:25:29;;;;;;;18.27;11.85;;;;;;;15.44;100.00;-18443.06;5016342;28;20122;-76
2023/09/04 03:27:54;;;;;;;15.93;11.57;;;;;;;15.43;100.00;-18442.81;5024934;28;20045;-76
2023/09/04 03:30:20;;;;;;;15.70;11.45;;;;;;;15.37;100.00;-18441.16;5026092;28;20034;-76
2023/09/04 03:32:45;;;;;;;17.90;11.80;;;;;;;15.39;100.00;-18441.84;5019386;28;20040;-76
2023/09/04 03:35:14;;;;;;;16.75;11.70;;;;;;;15.42;100.00;-18442.53;5026423;28;20049;-76
2023/09/04 03:37:40;;;;;;;16.73;12.27;;;;;;;15.49;100.00;-18444.59;5025142;28;20046;-76
2023/09/04 03:40:22;;;;;;;17.08;12.80;;;;;;;15.44;100.00;-18443.06;5027561;28;20045;-75
2023/09/04 03:42:48;;;;;;;17.35;11.70;;;;;;;15.49;100.00;-18444.44;5028977;28;22265;-76
2023/09/04 03:45:13;;;;;;;16.25;11.98;;;;;;;15.56;100.00;-18446.50;5027705;28;20034;-77
2023/09/04 03:47:39;;;;;;;17.75;11.70;;;;;;;15.54;100.00;-18445.94;5027557;28;20038;-76
2023/09/04 03:50:08;;;;;;;17.63;12.27;;;;;;;15.44;100.00;-18443.06;5007311;28;20045;-77
2023/09/04 03:52:33;;;;;;;17.90;12.15;;;;;;;15.52;100.00;-18445.41;5026650;28;20405;-76
2023/09/04 03:54:58;;;;;;;17.73;12.50;;;;;;;15.34;100.00;-18440.63;5009851;28;20060;-76
2023/09/04 03:57:25;;;;;;;17.63;12.70;;;;;;;15.41;100.00;-18442.41;5026054;28;20183;-76
2023/09/04 03:59:56;;;;;;;17.92;12.98;;;;;;;15.44;100.00;-18443.22;5017721;28;20073;-76
2023/09/04 04:02:21;;;;;;;18.35;11.93;;;;;;;15.41;100.00;-18442.25;5022265;28;20844;-77
2023/09/04 04:04:51;;;;;;;20.17;13.30;;;;;;;15.52;100.00;-18445.28;5022600;28;20576;-77
2023/09/04 04:07:16;;;;;;;19.45;13.95;;;;;;;15.45;100.00;-18443.50;5024368;28;20049;-77
2023/09/04 04:09:43;;;;;;;18.90;13.93;;;;;;;15.40;100.00;-18442.13;5023498;28;20543;-76
2023/09/04 04:12:09;;;;;;;21.05;13.82;;;;;;;15.46;100.00;-18443.75;5005074;28;20053;-76
2023/09/04 04:14:34;;;;;;;21.75;13.60;;;;;;;15.33;100.00;-18440.22;5025749;28;20139;-75
2023/09/04 04:17:01;;;;;;;19.77;13.10;;;;;;;15.44;100.00;-18443.06;5025410;28;20417;-75
2023/09/04 04:19:27;;;;;;;20.50;14.13;;;;;;;15.50;100.00;-18444.84;5024693;28;20112;-76
2023/09/04 04:21:52;;;;;;;19.38;13.60;;;;;;;15.45;100.00;-18443.50;5021677;28;20045;-76
2023/09/04 04:24:19;;;;;;;19.95;14.13;;;;;;;15.52;100.00;-18445.41;5024172;28;20041;-76
2023/09/04 04:26:45;;;;;;;21.38;14.63;;;;;;;15.44;100.00;-18443.22;5019528;28;20468;-76
2023/09/04 04:29:10;;;;;;;23.13;14.15;;;;;;;15.51;100.00;-18445.00;5026647;28;20054;-76
2023/09/04 04:31:36;;;;;;;18.48;13.32;;;;;;;15.43;100.00;-18442.94;5025058;28;20041;-76
2023/09/04 04:34:01;;;;;;;18.05;13.15;;;;;;;15.34;100.00;-18440.47;5005017;28;20041;-76
2023/09/04 04:36:26;;;;;;;19.00;13.45;;;;;;;15.24;100.00;-18437.75;5019397;28;20049;-77
2023/09/04 04:38:51;;;;;;;22.23;14.30;;;;;;;15.31;100.00;-18439.78;5025296;28;20487;-76
2023/09/04 04:41:17;;;;;;;20.42;14.25;;;;;;;15.20;100.00;-18436.66;5019237;28;20751;-76
2023/09/04 04:43:42;;;;;;;21.67;13.80;;;;;;;15.22;100.00;-18437.19;5023096;28;20034;-76
2023/09/04 04:46:12;;;;;;;19.98;13.18;;;;;;;15.37;100.00;-18441.31;5025834;28;20045;-76
2023/09/04 04:48:37;;;;;;;20.20;14.30;;;;;;;15.44;100.00;-18443.06;5024048;28;20450;-77
2023/09/04 04:51:03;;;;;;;21.13;14.52;;;;;;;15.35;100.00;-18440.88;5024498;28;20136;-76
2023/09/04 04:53:29;;;;;;;22.17;14.55;;;;;;;15.30;100.00;-18439.38;5025275;28;20072;-76
2023/09/04 04:55:55;;;;;;;23.90;15.65;;;;;;;15.18;100.00;-18436.09;5024127;28;20049;-76
2023/09/04 04:58:20;;;;;;;21.85;14.93;;;;;;;15.26;100.00;-18438.28;5024647;28;20133;-76
2023/09/04 05:00:46;;;;;;;20.23;14.60;;;;;;;15.20;100.00;-18436.78;5027367;28;20041;-77
2023/09/04 05:03:12;;;;;;;21.45;15.80;;;;;;;15.26;100.00;-18438.44;5011322;28;20038;-77
2023/09/04 05:05:45;;;;;;;21.48;14.40;;;;;;;15.02;100.00;-18431.88;5026501;28;20055;-76
2023/09/04 05:08:10;;;;;;;22.48;14.13;;;;;;;14.99;100.00;-18431.19;5025872;28;20450;-77
2023/09/04 05:10:35;;;;;;;23.23;14.48;;;;;;;14.98;100.00;-18430.78;5025596;28;20136;-77
2023/09/04 05:13:01;;;;;;;23.65;15.52;;;;;;;15.07;100.00;-18433.38;5029972;28;20045;-77
2023/09/04 05:15:26;;;;;;;22.42;15.02;;;;;;;15.07;100.00;-18433.38;5029813;28;20535;-77
2023/09/04 05:17:52;;;;;;;20.02;14.20;;;;;;;15.03;100.00;-18432.28;5004655;28;20053;-77
2023/09/04 05:20:17;;;;;;;22.27;14.68;;;;;;;15.02;100.00;-18432.00;5026109;28;20049;-77
2023/09/04 05:22:43;;;;;;;22.23;13.70;;;;;;;15.06;100.00;-18432.97;5032479;28;20034;-77
2023/09/04 05:25:09;;;;;;;24.65;16.00;;;;;;;15.02;100.00;-18432.00;5030625;28;20064;-77
2023/09/04 05:27:34;;;;;;;25.52;15.68;;;;;;;15.12;100.00;-18434.72;5023217;28;20459;-77
2023/09/04 05:30:00;;;;;;;26.70;16.80;;;;;;;15.28;100.00;-18438.84;5021436;28;20038;-77
2023/09/04 05:32:25;;;;;;;24.73;16.17;;;;;;;15.27;100.00;-18438.69;5019299;28;20042;-77
2023/09/04 05:34:54;;;;;;;26.08;16.67;;;;;;;15.32;100.00;-18439.94;5013214;28;20030;-77
2023/09/04 05:37:20;;;;;;;24.38;16.83;;;;;;;15.31;100.00;-18439.66;5023735;28;20074;-77
2023/09/04 05:39:45;;;;;;;26.27;17.73;;;;;;;15.40;100.00;-18442.13;5025624;28;20127;-76
2023/09/04 05:42:11;;;;;;;26.05;17.77;;;;;;;15.55;100.00;-18446.22;5006937;28;20069;-77
2023/09/04 05:44:36;;;;;;;26.27;17.23;;;;;;;15.57;100.00;-18446.78;5004644;28;20041;-76
2023/09/04 05:47:03;;;;;;;25.83;17.30;;;;;;;15.66;100.00;-18448.97;5022064;28;20405;-77
2023/09/04 05:49:28;;;;;;;25.33;16.10;;;;;;;15.68;100.00;-18449.66;5022667;28;20076;-77
2023/09/04 05:51:54;;;;;;;24.05;17.20;;;;;;;15.65;100.00;-18448.69;5023902;28;20713;-76
2023/09/04 05:54:20;;;;;;;26.75;16.67;;;;;;;15.74;100.00;-18451.16;5026014;28;20033;-77
2023/09/04 05:56:45;;;;;;;25.33;17.23;;;;;;;15.96;100.00;-18457.16;5025627;28;20136;-76
2023/09/04 05:59:14;;;;;;;25.70;16.73;;;;;;;15.99;100.00;-18458.00;5025532;28;20048;-77
2023/09/04 06:01:39;;;;;;;25.73;17.70;;;;;;;16.00;100.00;-18458.25;5016226;28;20404;-77
2023/09/04 06:04:05;;;;;;;28.23;18.17;;;;;;;16.14;100.00;-18461.81;5025567;28;20034;-77
2023/09/04 06:06:31;;;;;;;25.63;17.23;;;;;;;16.34;100.00;-18467.28;5024538;28;20493;-77
2023/09/04 06:08:56;;;;;;;28.20;17.17;;;;;;;16.36;100.00;-18467.81;5008452;28;20044;-77
2023/09/04 06:11:21;;;;;;;25.70;17.35;;;;;;;16.42;100.00;-18469.47;5022428;28;20071;-77
2023/09/04 06:13:48;;;;;;;25.45;18.00;;;;;;;16.43;100.00;-18469.75;5005593;28;20034;-77
2023/09/04 06:16:17;;;;;;;25.63;17.95;;;;;;;16.42;100.00;-18469.47;5021604;28;20033;-77
2023/09/04 06:18:42;;;;;;;25.15;16.05;;;;;;;16.61;100.00;-18474.38;5007710;28;20038;-77
2023/09/04 06:21:08;;;;;;;25.50;17.52;;;;;;;16.66;100.00;-18475.75;5024404;28;20124;-77
2023/09/04 06:23:34;;;;;;;23.35;17.52;;;;;;;16.84;100.00;-18480.69;5017650;28;20041;-78
2023/09/04 06:26:03;;;;;;;22.35;16.08;;;;;;;16.88;100.00;-18481.75;5023387;28;20054;-78
2023/09/04 06:28:28;;;;;;;;;;;;;;;17.03;100.00;-18485.59;5010323;28;20052;-76
2023/09/04 06:30:55;;;;;;;22.17;16.17;;;;;;;17.03;100.00;-18485.59;5000844;28;19921;-77
2023/09/04 06:33:21;;;;;;;21.65;16.17;;;;;;;17.10;100.00;-18487.63;5008603;28;20033;-76
2023/09/04 06:35:47;;;;;;;21.52;16.02;;;;;;;17.42;100.00;-18495.97;5028623;28;20045;-77
2023/09/04 06:38:14;;;;;;;23.95;16.50;;;;;;;17.54;100.00;-18499.25;5023686;28;20049;-76
2023/09/04 06:40:39;;;;;;;21.80;16.23;;;;;;;17.58;100.00;-18500.34;5026256;28;20436;-77
2023/09/04 06:43:05;;;;;;;22.38;15.48;;;;;;;17.73;100.00;-18504.28;5021487;28;20034;-77
2023/09/04 06:45:35;;;;;;;22.35;15.45;;;;;;;17.92;100.00;-18509.47;5021902;28;20132;-76
2023/09/04 06:48:00;;;;;;;20.92;14.80;;;;;;;17.71;100.00;-18503.75;5002623;28;20124;-78
2023/09/04 06:50:26;;;;;;;18.77;14.70;;;;;;;17.81;100.00;-18506.47;5030347;28;20157;-77
2023/09/04 06:52:51;;;;;;;17.35;12.63;;;;;;;17.80;100.00;-18506.34;5021483;28;20053;-77
2023/09/04 06:55:16;;;;;;;20.95;14.48;;;;;;;18.06;100.00;-18513.03;5027428;28;20045;-77
2023/09/04 06:57:42;;;;;;;17.85;13.45;;;;;;;18.12;100.00;-18514.81;5021471;28;20041;-77
2023/09/04 07:00:08;;;;;;;18.95;13.60;;;;;;;18.20;100.00;-18516.97;5020271;28;20404;-77
2023/09/04 07:02:36;;;;;;;17.90;13.63;;;;;;;18.35;100.00;-18520.81;5026550;28;20038;-77
2023/09/04 07:05:02;;;;;;;16.88;12.88;;;;;;;18.59;100.00;-18527.34;5027039;28;20167;-78
2023/09/04 07:07:27;;;;;;;18.70;12.80;;;;;;;18.65;100.00;-18528.97;5032275;28;20477;-77
2023/09/04 07:09:52;;;;;;;17.80;11.82;;;;;;;18.86;100.00;-18534.44;5030051;28;20128;-78
2023/09/04 07:12:18;;;;;;;16.15;12.02;;;;;;;18.98;100.00;-18537.72;5027426;28;20456;-78
2023/09/04 07:14:43;;;;;;;17.25;12.10;;;;;;;19.00;100.00;-18538.13;5009923;28;20616;-77
2023/09/04 07:17:09;;;;;;;16.80;11.93;;;;;;;19.10;100.00;-18540.97;5025046;28;20052;-77
2023/09/04 07:19:34;;;;;;;14.48;10.65;;;;;;;19.25;100.00;-18544.78;5026376;28;20045;-77
2023/09/04 07:21:59;;;;;;;13.82;11.30;;;;;;;19.46;100.00;-18550.38;5026445;28;20038;-78
2023/09/04 07:24:25;;;;;;;15.00;11.10;;;;;;;19.46;100.00;-18550.53;5028329;28;20045;-78
2023/09/04 07:26:50;;;;;;;14.20;11.38;;;;;;;19.33;100.00;-18546.97;5027950;28;20044;-77
2023/09/04 07:29:17;;;;;;;17.70;11.73;;;;;;;19.45;100.00;-18550.25;5016833;28;20496;-77
2023/09/04 07:31:43;;;;;;;14.75;10.45;;;;;;;19.53;100.00;-18552.28;5028043;28;20121;-77
2023/09/04 07:34:08;;;;;;;14.65;10.68;;;;;;;19.54;100.00;-18552.56;5008632;28;20116;-78
2023/09/04 07:36:33;;;;;;;14.15;10.65;;;;;;;19.72;100.00;-18557.34;5015940;28;20036;-78
2023/09/04 07:38:59;;;;;;;14.95;10.80;;;;;;;19.87;100.00;-18561.28;5027483;28;20063;-78
2023/09/04 07:41:25;;;;;;;15.43;10.48;;;;;;;20.07;100.00;-18566.72;5030602;28;20132;-77
2023/09/04 07:43:51;;;;;;;13.15;10.60;;;;;;;20.18;100.00;-18569.59;5016353;28;20054;-77
2023/09/04 07:46:17;;;;;;;13.60;10.75;;;;;;;20.43;100.00;-18576.25;5027724;28;20033;-78
2023/09/04 07:48:43;;;;;;;12.88;9.88;;;;;;;20.56;100.00;-18579.78;5022945;28;20124;-78
2023/09/04 07:51:09;;;;;;;12.55;9.45;;;;;;;20.80;100.00;-18586.19;5013730;28;20574;-77
2023/09/04 07:53:34;;;;;;;11.95;9.43;;;;;;;20.88;100.00;-18588.22;5032347;28;20044;-77
2023/09/04 07:56:00;;;;;;;11.65;8.75;;;;;;;21.02;100.00;-18592.03;5026427;28;20041;-77
2023/09/04 07:58:25;;;;;;;15.55;8.35;;;;;;;20.63;100.00;-18581.69;5020956;28;20583;-77
2023/09/04 08:00:51;;;;;;;10.77;8.20;;;;;;;20.68;100.00;-18582.94;5022126;28;20405;-77
2023/09/04 08:03:17;;;;;;;9.50;7.75;;;;;;;20.91;100.00;-18589.19;5027235;28;20037;-76
2023/09/04 08:05:43;;;;;;;10.48;7.97;;;;;;;20.81;100.00;-18586.47;5004795;28;20120;-77
2023/09/04 08:08:09;;;;;;;11.60;7.85;;;;;;;21.00;100.00;-18591.34;5007929;28;20148;-76
2023/09/04 08:10:39;;;;;;;11.55;6.78;;;;;;;21.15;100.00;-18595.56;5020848;28;20038;-78
2023/09/04 08:13:06;;;;;;;12.30;7.45;;;;;;;21.28;100.00;-18598.97;5022286;28;20115;-77
2023/09/04 08:15:32;;;;;;;11.38;7.20;;;;;;;21.34;100.00;-18600.59;5021952;28;20121;-78
2023/09/04 08:17:57;;;;;;;10.48;6.97;;;;;;;21.47;100.00;-18603.88;5026351;28;20056;-78
2023/09/04 08:20:22;;;;;;;10.18;7.45;;;;;;;21.52;100.00;-18605.22;5015007;28;20032;-77
2023/09/04 08:22:48;;;;;;;11.20;7.30;;;;;;;21.63;100.00;-18608.22;5018023;28;20065;-78
2023/09/04 08:25:13;;;;;;;9.75;7.15;;;;;;;21.75;100.00;-18611.47;5027485;28;20436;-77
2023/09/04 08:27:39;;;;;;;10.70;7.03;;;;;;;21.72;100.00;-18610.53;5019096;28;20044;-78
2023/09/04 08:30:05;;;;;;;9.27;6.95;;;;;;;21.79;100.00;-18612.44;5022841;28;21084;-77
2023/09/04 08:32:30;;;;;;;10.55;6.72;;;;;;;21.94;100.00;-18616.38;5022926;28;20052;-77
2023/09/04 08:34:55;;;;;;;8.30;5.85;;;;;;;22.09;100.00;-18620.44;5021495;28;20358;-77
2023/09/04 08:37:21;;;;;;;8.38;6.07;;;;;;;22.15;100.00;-18621.94;5026741;28;20037;-76
2023/09/04 08:39:46;;;;;;;9.40;6.57;;;;;;;22.22;100.00;-18623.84;5026200;28;20064;-77
2023/09/04 08:42:12;;;;;;;9.75;6.40;;;;;;;22.30;100.00;-18626.16;5023586;28;20121;-76
2023/09/04 08:44:39;;;;;;;10.23;6.10;;;;;;;22.49;100.00;-18631.19;5013464;28;20069;-76
2023/09/04 08:47:06;;;;;;;8.95;5.72;;;;;;;22.72;100.00;-18637.28;5026031;28;20564;-76
2023/09/04 08:49:31;;;;;;;8.18;6.10;;;;;;;22.82;100.00;-18639.72;5022998;28;20045;-78
2023/09/04 08:51:57;;;;;;;8.15;5.80;;;;;;;22.81;100.00;-18639.59;5022052;28;20049;-77
2023/09/04 08:54:25;;;;;;;7.45;5.60;;;;;;;22.98;100.00;-18644.06;4998796;28;20718;-77
2023/09/04 08:56:51;;;;;;;8.35;5.43;;;;;;;23.02;100.00;-18645.16;5019792;28;20040;-77
2023/09/04 08:59:16;;;;;;;7.70;5.38;;;;;;;23.19;100.00;-18649.78;5026833;28;20298;-77
2023/09/04 09:01:42;;;;;;;7.05;5.07;;;;;;;23.33;100.00;-18653.31;5005126;28;20026;-77
2023/09/04 09:04:08;;;;;;;8.18;5.10;;;;;;;23.65;99.59;-18661.84;5025117;28;20037;-77
2023/09/04 09:06:34;;;;;;;8.63;5.45;;;;;;;23.59;99.12;-18660.34;5006716;28;20046;-77
2023/09/04 09:09:00;;;;;;;8.05;5.07;;;;;;;23.52;99.87;-18658.47;5020832;28;20493;-78
2023/09/04 09:11:26;;;;;;;6.28;4.60;;;;;;;23.62;97.62;-18661.16;5011460;28;20115;-77
2023/09/04 09:13:51;;;;;;;6.60;4.75;;;;;;;23.72;99.84;-18663.75;5024514;28;20137;-78
2023/09/04 09:16:19;;;;;;;8.10;4.20;;;;;;;24.07;95.80;-18672.97;5023088;28;20045;-77
2023/09/04 09:18:44;;;;;;;6.65;4.40;;;;;;;24.20;95.23;-18676.50;5024317;28;20604;-77
2023/09/04 09:21:30;;;;;;;6.95;4.75;;;;;;;24.19;97.46;-18676.09;5028534;28;20112;-77
2023/09/04 09:24:18;;;;;;;8.05;4.30;;;;;;;24.26;92.12;-18678.13;5024467;28;20048;-77
2023/09/04 09:26:48;;;;;;;7.53;4.05;;;;;;;24.32;94.11;-18679.59;5010054;28;20401;-77
2023/09/04 09:29:15;;;;;;;5.97;4.40;;;;;;;24.50;94.05;-18684.50;5022266;28;20037;-77
2023/09/04 09:31:43;;;;;;;6.30;4.32;;;;;;;24.52;93.05;-18684.91;5022123;28;20041;-77
2023/09/04 09:34:10;;;;;;;6.78;4.72;;;;;;;24.78;92.40;-18691.81;5007131;28;20552;-78
2023/09/04 09:36:36;;;;;;;7.00;4.38;;;;;;;24.66;95.03;-18688.56;5026051;28;20451;-77
2023/09/04 09:39:03;;;;;;;6.53;4.13;;;;;;;24.83;91.93;-18693.16;5024373;28;20057;-77
2023/09/04 09:41:29;;;;;;;5.90;3.85;;;;;;;24.96;93.88;-18696.69;5028441;28;20046;-77
2023/09/04 09:43:54;;;;;;;6.80;3.90;;;;;;;25.14;89.43;-18701.28;5019632;28;20091;-77
2023/09/04 09:46:20;;;;;;;6.03;3.97;;;;;;;25.23;84.59;-18703.72;5006343;28;20052;-77
2023/09/04 09:48:45;;;;;;;6.53;3.85;;;;;;;25.20;82.12;-18702.91;5026103;28;20083;-77
2023/09/04 09:51:12;;;;;;;5.97;4.50;;;;;;;25.28;84.75;-18704.94;5000405;28;20278;-77
2023/09/04 09:53:52;;;;;;;6.00;3.97;;;;;;;25.10;81.30;-18700.34;5017156;28;20176;-77
2023/09/04 09:56:18;;;;;;;6.25;3.78;;;;;;;25.13;84.76;-18701.00;5021540;28;20037;-77
2023/09/04 09:58:48;;;;;;;5.10;3.60;;;;;;;25.36;86.49;-18707.09;5015531;28;20040;-77
2023/09/04 10:01:15;;;;;;;5.45;4.15;;;;;;;25.63;83.26;-18714.41;5020241;28;20042;-77
2023/09/04 10:03:43;;;;;;;6.47;3.90;;;;;;;25.77;86.20;-18717.94;5006182;28;20133;-77
2023/09/04 10:06:14;;;;;;;5.77;4.70;;;;;;;25.90;84.03;-18721.44;5022685;28;20053;-77
2023/09/04 10:08:41;;;;;;;5.50;4.30;;;;;;;25.79;77.09;-18718.59;5022440;28;20038;-77
2023/09/04 10:11:13;;;;;;;5.57;4.20;;;;;;;25.81;81.40;-18719.16;5022217;28;20442;-77
2023/09/04 10:14:20;;;;;;;5.57;3.90;;;;;;;25.92;85.64;-18722.00;5022302;28;20045;-77
2023/09/04 10:16:56;;;;;;;5.78;4.22;;;;;;;26.01;79.53;-18724.44;5027401;28;20069;-77
2023/09/04 10:19:28;;;;;;;5.53;4.03;;;;;;;26.18;82.95;-18728.88;5023496;28;20041;-77
2023/09/04 10:22:03;;;;;;;5.80;4.10;;;;;;;26.28;82.90;-18731.59;5026066;28;20038;-77
2023/09/04 10:24:38;;;;;;;6.30;4.15;;;;;;;26.41;83.72;-18734.84;5024977;28;20042;-77
2023/09/04 10:27:08;;;;;;;6.25;3.80;;;;;;;26.62;74.60;-18740.50;5024653;28;20056;-77
2023/09/04 10:29:51;;;;;;;5.47;3.78;;;;;;;26.57;72.15;-18739.16;5022438;28;20129;-77
2023/09/04 10:32:16;;;;;;;5.57;3.50;;;;;;;26.62;71.24;-18740.38;5007071;28;20037;-77
2023/09/04 10:34:42;;;;;;;5.10;3.22;;;;;;;26.75;73.31;-18744.03;5021843;28;20128;-77
2023/09/04 10:37:12;;;;;;;6.38;3.63;;;;;;;26.83;71.41;-18745.91;4997822;28;20401;-77
2023/09/04 10:39:39;;;;;;;5.70;3.55;;;;;;;27.10;70.32;-18753.22;5019236;28;20125;-77
2023/09/04 10:42:05;;;;;;;4.75;3.08;;;;;;;27.23;73.96;-18756.59;5003303;28;20041;-77
2023/09/04 10:44:47;;;;;;;4.20;3.08;;;;;;;27.23;69.31;-18756.72;5021213;28;20103;-77
2023/09/04 10:47:13;;;;;;;5.30;3.22;;;;;;;27.28;71.97;-18757.81;4990444;28;20129;-77
2023/09/04 10:49:39;;;;;;;5.72;3.40;;;;;;;27.36;69.87;-18759.97;4997589;28;20061;-77
2023/09/04 10:52:05;;;;;;;5.93;3.28;;;;;;;27.20;71.36;-18755.91;5004754;28;20077;-77
2023/09/04 10:54:30;;;;;;;4.53;3.60;;;;;;;27.25;64.59;-18757.00;5022931;28;20038;-77
2023/09/04 10:56:56;;;;;;;6.13;3.33;;;;;;;27.38;69.78;-18760.66;5016947;28;20042;-77
2023/09/04 10:59:21;;;;;;;4.32;2.85;;;;;;;27.56;73.22;-18765.38;5023842;28;20048;-77
2023/09/04 11:01:47;;;;;;;5.30;3.60;;;;;;;27.80;65.64;-18771.72;5022054;28;20514;-77
2023/09/04 11:04:30;;;;;;;3.97;2.90;;;;;;;27.84;66.40;-18772.66;5022524;28;20118;-77
2023/09/04 11:07:20;;;;;;;6.60;3.50;;;;;;;27.84;66.17;-18772.66;5019207;28;20125;-77